createdAt,value
2023-01-07T00:00:08.365Z,4.77
2023-01-07T00:01:08.355Z,4.78
2023-01-07T00:02:08.382Z,4.77
2023-01-07T00:03:08.327Z,4.74
2023-01-07T00:04:08.408Z,4.70
2023-01-07T00:05:08.275Z,4.68
2023-01-07T00:06:08.275Z,4.67
2023-01-07T00:07:09.915Z,4.63
2023-01-07T00:08:08.276Z,4.60
2023-01-07T00:09:08.244Z,4.58
2023-01-07T00:10:08.248Z,4.53
2023-01-07T00:11:08.241Z,4.45
2023-01-07T00:12:08.253Z,4.48
2023-01-07T00:13:08.215Z,4.45
2023-01-07T00:14:08.199Z,4.42
2023-01-07T00:15:08.177Z,4.37
2023-01-07T00:16:08.264Z,4.35
2023-01-07T00:17:08.199Z,4.31
2023-01-07T00:18:08.173Z,4.31
2023-01-07T00:19:08.155Z,4.30
2023-01-07T00:20:08.137Z,4.31
2023-01-07T00:21:08.107Z,4.28
2023-01-07T00:22:08.130Z,4.26
2023-01-07T00:23:08.089Z,4.26
2023-01-07T00:24:08.111Z,4.26
2023-01-07T00:25:08.064Z,4.24
2023-01-07T00:26:08.072Z,4.23
2023-01-07T00:27:08.091Z,4.20
2023-01-07T00:28:08.051Z,4.17
2023-01-07T00:29:08.036Z,4.13
2023-01-07T00:30:08.005Z,4.17
2023-01-07T00:31:08.046Z,4.19
2023-01-07T00:32:08.048Z,4.14
2023-01-07T00:33:07.982Z,4.10
2023-01-07T00:34:07.974Z,4.06
2023-01-07T00:35:07.947Z,4.01
2023-01-07T00:36:07.938Z,3.96
2023-01-07T00:37:07.968Z,3.92
2023-01-07T00:38:07.935Z,3.87
2023-01-07T00:39:07.892Z,3.83
2023-01-07T00:40:07.933Z,3.81
2023-01-07T00:41:07.887Z,3.78
2023-01-07T00:42:07.923Z,3.78
2023-01-07T00:43:07.910Z,3.77
2023-01-07T00:44:07.881Z,3.76
2023-01-07T00:45:07.851Z,3.70
2023-01-07T00:46:07.835Z,3.65
2023-01-07T00:47:07.858Z,3.62
2023-01-07T00:48:07.841Z,3.58
2023-01-07T00:49:07.815Z,3.60
2023-01-07T00:50:07.899Z,3.63
2023-01-07T00:51:07.789Z,3.68
2023-01-07T00:52:07.765Z,3.74
2023-01-07T00:53:07.789Z,3.76
2023-01-07T00:54:07.763Z,3.78
2023-01-07T00:55:07.744Z,3.77
2023-01-07T00:56:07.719Z,3.77
2023-01-07T00:57:07.706Z,3.76
2023-01-07T00:58:07.825Z,3.76
2023-01-07T00:59:07.701Z,3.74
2023-01-07T01:00:07.684Z,3.77
2023-01-07T01:01:07.745Z,3.74
2023-01-07T01:02:07.829Z,3.76
2023-01-07T01:03:07.696Z,3.76
2023-01-07T01:04:07.655Z,3.78
2023-01-07T01:05:07.644Z,3.78
2023-01-07T01:06:07.600Z,3.81
2023-01-07T01:07:07.590Z,3.81
2023-01-07T01:08:07.616Z,3.80
2023-01-07T01:09:07.592Z,3.80
2023-01-07T01:10:07.576Z,3.91
2023-01-07T01:11:07.547Z,3.92
2023-01-07T01:12:07.550Z,3.94
2023-01-07T01:13:07.576Z,3.96
2023-01-07T01:14:07.544Z,3.98
2023-01-07T01:15:07.502Z,3.95
2023-01-07T01:16:07.527Z,3.92
2023-01-07T01:17:07.474Z,3.91
2023-01-07T01:18:07.517Z,3.95
2023-01-07T01:19:07.479Z,3.94
2023-01-07T01:20:07.442Z,3.94
2023-01-07T01:21:07.450Z,3.91
2023-01-07T01:22:07.438Z,3.88
2023-01-07T01:23:07.479Z,3.81
2023-01-07T01:24:07.418Z,3.83
2023-01-07T01:25:07.451Z,3.78
2023-01-07T01:26:07.393Z,3.74
2023-01-07T01:27:07.374Z,3.73
2023-01-07T01:28:07.381Z,3.73
2023-01-07T01:29:07.396Z,3.69
2023-01-07T01:30:07.360Z,3.76
2023-01-07T01:31:07.356Z,3.77
2023-01-07T01:32:07.326Z,3.78
2023-01-07T01:33:07.313Z,3.76
2023-01-07T01:34:07.334Z,3.74
2023-01-07T01:35:07.298Z,3.69
2023-01-07T01:36:07.265Z,3.68
2023-01-07T01:37:07.258Z,3.63
2023-01-07T01:38:07.238Z,3.62
2023-01-07T01:39:07.253Z,3.59
2023-01-07T01:40:07.236Z,3.47
2023-01-07T01:41:07.239Z,3.41
2023-01-07T01:42:07.223Z,3.40
2023-01-07T01:43:07.200Z,3.47
2023-01-07T01:44:07.212Z,3.50
2023-01-07T01:45:07.175Z,3.58
2023-01-07T01:46:07.159Z,3.58
2023-01-07T01:47:07.152Z,3.56
2023-01-07T01:48:07.137Z,3.56
2023-01-07T01:49:07.141Z,3.51
2023-01-07T01:50:07.110Z,3.48
2023-01-07T01:51:07.107Z,3.50
2023-01-07T01:52:07.112Z,3.53
2023-01-07T01:53:07.087Z,3.56
2023-01-07T01:54:07.103Z,3.55
2023-01-07T01:55:07.063Z,3.50
2023-01-07T01:56:07.070Z,3.47
2023-01-07T01:57:07.027Z,3.37
2023-01-07T01:58:07.030Z,3.36
2023-01-07T01:59:07.047Z,3.34
2023-01-07T02:00:07.015Z,3.31
2023-01-07T02:01:07.086Z,3.28
2023-01-07T02:02:07.067Z,3.25
2023-01-07T02:03:06.962Z,3.22
2023-01-07T02:04:07.014Z,3.21
2023-01-07T02:05:06.954Z,3.23
2023-01-07T02:06:06.937Z,3.22
2023-01-07T02:07:06.911Z,3.22
2023-01-07T02:08:06.891Z,3.22
2023-01-07T02:09:06.930Z,3.19
2023-01-07T02:10:06.925Z,3.19
2023-01-07T02:11:06.870Z,3.14
2023-01-07T02:12:06.861Z,3.16
2023-01-07T02:13:06.846Z,3.21
2023-01-07T02:14:06.893Z,3.19
2023-01-07T02:15:06.845Z,3.18
2023-01-07T02:16:06.869Z,3.19
2023-01-07T02:17:06.815Z,3.19
2023-01-07T02:18:06.808Z,3.16
2023-01-07T02:19:06.818Z,3.11
2023-01-07T02:20:06.789Z,3.08
2023-01-07T02:21:06.775Z,3.05
2023-01-07T02:22:06.757Z,3.05
2023-01-07T02:23:06.766Z,3.03
2023-01-07T02:24:06.768Z,3.04
2023-01-07T02:25:06.720Z,3.01
2023-01-07T02:26:06.725Z,3.04
2023-01-07T02:27:06.689Z,3.01
2023-01-07T02:28:06.696Z,3.04
2023-01-07T02:29:06.665Z,3.04
2023-01-07T02:30:06.710Z,3.07
2023-01-07T02:31:06.650Z,3.08
2023-01-07T02:32:06.647Z,3.13
2023-01-07T02:33:06.655Z,3.18
2023-01-07T02:34:06.615Z,3.18
2023-01-07T02:35:06.641Z,3.19
2023-01-07T02:36:06.582Z,3.21
2023-01-07T02:37:06.574Z,3.19
2023-01-07T02:38:06.567Z,3.18
2023-01-07T02:39:06.549Z,3.18
2023-01-07T02:40:06.601Z,3.16
2023-01-07T02:41:06.523Z,3.18
2023-01-07T02:42:06.539Z,3.21
2023-01-07T02:43:06.513Z,3.29
2023-01-07T02:44:06.523Z,3.32
2023-01-07T02:45:06.549Z,3.36
2023-01-07T02:46:06.539Z,3.45
2023-01-07T02:47:06.470Z,3.50
2023-01-07T02:48:06.464Z,3.53
2023-01-07T02:49:06.466Z,3.56
2023-01-07T02:50:06.487Z,3.58
2023-01-07T02:51:06.429Z,3.59
2023-01-07T02:52:06.443Z,3.59
2023-01-07T02:53:06.414Z,3.58
2023-01-07T02:54:06.396Z,3.60
2023-01-07T02:55:06.412Z,3.56
2023-01-07T02:56:06.380Z,3.48
2023-01-07T02:57:06.347Z,3.45
2023-01-07T02:58:06.364Z,3.45
2023-01-07T02:59:06.333Z,3.47
2023-01-07T03:00:06.361Z,3.47
2023-01-07T03:01:06.436Z,3.45
2023-01-07T03:02:06.353Z,3.45
2023-01-07T03:03:06.310Z,3.47
2023-01-07T03:04:06.292Z,3.44
2023-01-07T03:05:06.307Z,3.42
2023-01-07T03:06:06.260Z,3.37
2023-01-07T03:07:06.247Z,3.32
2023-01-07T03:08:06.212Z,3.41
2023-01-07T03:09:06.206Z,3.48
2023-01-07T03:10:06.276Z,3.56
2023-01-07T03:11:06.202Z,3.58
2023-01-07T03:12:06.200Z,3.62
2023-01-07T03:13:06.176Z,3.74
2023-01-07T03:14:06.180Z,3.84
2023-01-07T03:15:06.196Z,3.86
2023-01-07T03:16:06.208Z,3.87
2023-01-07T03:17:06.141Z,3.91
2023-01-07T03:18:06.143Z,3.95
2023-01-07T03:19:06.127Z,3.96
2023-01-07T03:20:06.154Z,4.01
2023-01-07T03:21:06.122Z,4.01
2023-01-07T03:22:06.066Z,4.05
2023-01-07T03:23:06.085Z,4.08
2023-01-07T03:24:06.060Z,4.14
2023-01-07T03:25:06.072Z,4.24
2023-01-07T03:26:06.061Z,4.30
2023-01-07T03:27:06.039Z,4.28
2023-01-07T03:28:06.042Z,4.31
2023-01-07T03:29:05.989Z,4.32
2023-01-07T03:30:06.025Z,4.35
2023-01-07T03:31:05.978Z,4.38
2023-01-07T03:32:06.068Z,4.38
2023-01-07T03:33:05.956Z,4.40
2023-01-07T03:34:05.963Z,4.42
2023-01-07T03:35:05.965Z,4.48
2023-01-07T03:36:05.950Z,4.56
2023-01-07T03:37:05.910Z,4.59
2023-01-07T03:38:05.892Z,4.68
2023-01-07T03:39:05.877Z,4.74
2023-01-07T03:40:05.914Z,4.80
2023-01-07T03:41:05.889Z,4.82
2023-01-07T03:42:05.891Z,4.89
2023-01-07T03:43:05.872Z,4.94
2023-01-07T03:44:05.841Z,4.97
2023-01-07T03:45:05.871Z,5.02
2023-01-07T03:46:05.903Z,5.00
2023-01-07T03:47:05.805Z,5.05
2023-01-07T03:48:05.798Z,5.05
2023-01-07T03:49:05.776Z,5.07
2023-01-07T03:50:05.800Z,5.07
2023-01-07T03:51:05.761Z,5.07
2023-01-07T03:52:05.733Z,5.08
2023-01-07T03:53:05.728Z,5.07
2023-01-07T03:54:05.723Z,5.07
2023-01-07T03:55:05.744Z,5.05
2023-01-07T03:56:05.685Z,5.04
2023-01-07T03:57:05.712Z,5.02
2023-01-07T03:58:05.685Z,5.00
2023-01-07T03:59:05.663Z,4.99
2023-01-07T04:00:05.691Z,4.96
2023-01-07T04:01:05.740Z,4.94
2023-01-07T04:02:05.936Z,4.86
2023-01-07T04:03:05.631Z,4.75
2023-01-07T04:04:05.700Z,4.70
2023-01-07T04:05:05.631Z,4.67
2023-01-07T04:06:05.579Z,4.63
2023-01-07T04:07:05.570Z,4.60
2023-01-07T04:08:05.546Z,4.56
2023-01-07T04:09:05.527Z,4.49
2023-01-07T04:10:05.509Z,4.49
2023-01-07T04:11:05.568Z,4.41
2023-01-07T04:12:05.519Z,4.35
2023-01-07T04:13:05.499Z,4.31
2023-01-07T04:14:05.511Z,4.26
2023-01-07T04:15:05.492Z,4.20
2023-01-07T04:16:05.521Z,4.20
2023-01-07T04:17:05.459Z,4.20
2023-01-07T04:18:05.455Z,4.19
2023-01-07T04:19:05.441Z,4.17
2023-01-07T04:20:05.448Z,4.16
2023-01-07T04:21:05.440Z,4.13
2023-01-07T04:22:05.385Z,4.12
2023-01-07T04:23:05.394Z,4.14
2023-01-07T04:24:05.379Z,4.14
2023-01-07T04:25:05.375Z,4.30
2023-01-07T04:26:05.464Z,4.31
2023-01-07T04:27:05.383Z,4.31
2023-01-07T04:28:05.364Z,4.28
2023-01-07T04:29:05.335Z,4.24
2023-01-07T04:30:05.353Z,4.34
2023-01-07T04:31:05.392Z,4.35
2023-01-07T04:32:05.300Z,4.35
2023-01-07T04:33:05.288Z,4.35
2023-01-07T04:34:05.288Z,4.40
2023-01-07T04:35:05.266Z,4.44
2023-01-07T04:36:05.278Z,4.48
2023-01-07T04:37:05.264Z,4.53
2023-01-07T04:38:05.230Z,4.56
2023-01-07T04:39:05.195Z,4.60
2023-01-07T04:40:05.193Z,4.74
2023-01-07T04:41:05.243Z,4.74
2023-01-07T04:42:05.168Z,4.73
2023-01-07T04:43:05.179Z,4.74
2023-01-07T04:44:05.167Z,4.74
2023-01-07T04:45:05.161Z,4.73
2023-01-07T04:46:05.216Z,4.71
2023-01-07T04:47:05.132Z,4.80
2023-01-07T04:48:05.116Z,4.97
2023-01-07T04:49:05.116Z,5.02
2023-01-07T04:50:05.108Z,5.02
2023-01-07T04:51:05.108Z,5.04
2023-01-07T04:52:05.061Z,5.12
2023-01-07T04:53:05.061Z,5.32
2023-01-07T04:54:05.051Z,5.30
2023-01-07T04:55:05.035Z,5.35
2023-01-07T04:56:05.063Z,5.39
2023-01-07T04:57:05.028Z,5.35
2023-01-07T04:58:05.012Z,5.38
2023-01-07T04:59:04.984Z,5.23
2023-01-07T05:00:04.984Z,5.05
2023-01-07T05:01:05.124Z,4.96
2023-01-07T05:02:05.100Z,4.84
2023-01-07T05:03:04.962Z,4.67
2023-01-07T05:04:04.946Z,4.58
2023-01-07T05:05:04.919Z,4.44
2023-01-07T05:06:04.966Z,4.34
2023-01-07T05:07:04.939Z,4.26
2023-01-07T05:08:04.891Z,4.24
2023-01-07T05:09:04.888Z,4.22
2023-01-07T05:10:04.864Z,4.23
2023-01-07T05:11:04.883Z,4.20
2023-01-07T05:12:04.849Z,4.17
2023-01-07T05:13:06.714Z,4.23
2023-01-07T05:14:04.882Z,4.23
2023-01-07T05:15:04.839Z,4.26
2023-01-07T05:16:04.865Z,4.24
2023-01-07T05:17:04.851Z,4.26
2023-01-07T05:18:04.766Z,4.23
2023-01-07T05:19:04.780Z,4.19
2023-01-07T05:20:04.754Z,4.19
2023-01-07T05:21:04.781Z,4.22
2023-01-07T05:22:04.745Z,4.26
2023-01-07T05:23:04.740Z,4.24
2023-01-07T05:24:04.716Z,4.24
2023-01-07T05:25:04.709Z,4.22
2023-01-07T05:26:04.743Z,4.24
2023-01-07T05:27:04.701Z,4.26
2023-01-07T05:28:04.663Z,4.24
2023-01-07T05:29:04.683Z,4.20
2023-01-07T05:30:04.656Z,4.19
2023-01-07T05:31:04.741Z,4.26
2023-01-07T05:32:04.627Z,4.37
2023-01-07T05:33:04.616Z,4.40
2023-01-07T05:34:04.615Z,4.45
2023-01-07T05:35:04.604Z,4.52
2023-01-07T05:36:04.607Z,4.53
2023-01-07T05:37:04.573Z,4.63
2023-01-07T05:38:04.584Z,4.62
2023-01-07T05:39:04.545Z,4.62
2023-01-07T05:40:04.542Z,4.59
2023-01-07T05:41:04.549Z,4.56
2023-01-07T05:42:04.517Z,4.53
2023-01-07T05:43:04.527Z,4.45
2023-01-07T05:44:04.491Z,4.50
2023-01-07T05:45:04.491Z,4.52
2023-01-07T05:46:04.538Z,4.50
2023-01-07T05:47:04.483Z,4.44
2023-01-07T05:48:04.454Z,4.40
2023-01-07T05:49:04.434Z,4.31
2023-01-07T05:50:04.428Z,4.31
2023-01-07T05:51:04.477Z,4.31
2023-01-07T05:52:04.427Z,4.31
2023-01-07T05:53:04.408Z,4.34
2023-01-07T05:54:04.403Z,4.32
2023-01-07T05:55:04.373Z,4.41
2023-01-07T05:56:04.406Z,4.38
2023-01-07T05:57:04.366Z,4.38
2023-01-07T05:58:04.335Z,4.42
2023-01-07T05:59:04.350Z,4.40
2023-01-07T06:00:04.369Z,4.34
2023-01-07T06:01:04.402Z,4.34
2023-01-07T06:02:04.294Z,4.38
2023-01-07T06:03:04.320Z,4.40
2023-01-07T06:04:04.273Z,4.45
2023-01-07T06:05:04.350Z,4.58
2023-01-07T06:06:04.310Z,4.75
2023-01-07T06:07:04.255Z,4.77
2023-01-07T06:08:04.239Z,4.82
2023-01-07T06:09:04.234Z,4.80
2023-01-07T06:10:04.204Z,4.80
2023-01-07T06:11:04.233Z,4.80
2023-01-07T06:12:04.182Z,4.80
2023-01-07T06:13:04.190Z,4.77
2023-01-07T06:14:04.166Z,4.87
2023-01-07T06:15:04.153Z,5.18
2023-01-07T06:16:04.210Z,5.18
2023-01-07T06:17:04.138Z,5.12
2023-01-07T06:18:04.139Z,5.07
2023-01-07T06:19:04.128Z,5.15
2023-01-07T06:20:04.088Z,5.12
2023-01-07T06:21:04.121Z,5.08
2023-01-07T06:22:04.069Z,5.02
2023-01-07T06:23:04.073Z,4.99
2023-01-07T06:24:04.053Z,5.07
2023-01-07T06:25:04.057Z,5.07
2023-01-07T06:26:04.087Z,5.05
2023-01-07T06:27:04.023Z,5.02
2023-01-07T06:28:04.001Z,5.05
2023-01-07T06:29:03.993Z,5.33
2023-01-07T06:30:03.996Z,5.36
2023-01-07T06:31:04.052Z,5.43
2023-01-07T06:32:03.976Z,5.46
2023-01-07T06:33:03.942Z,5.53
2023-01-07T06:34:03.964Z,5.51
2023-01-07T06:35:03.938Z,5.54
2023-01-07T06:36:03.952Z,5.79
2023-01-07T06:37:03.900Z,5.75
2023-01-07T06:38:03.919Z,5.72
2023-01-07T06:39:03.890Z,5.65
2023-01-07T06:40:03.855Z,5.61
2023-01-07T06:41:03.900Z,5.59
2023-01-07T06:42:03.847Z,5.59
2023-01-07T06:43:03.826Z,5.59
2023-01-07T06:44:03.825Z,5.56
2023-01-07T06:45:03.823Z,5.62
2023-01-07T06:46:03.874Z,5.64
2023-01-07T06:47:03.823Z,5.65
2023-01-07T06:48:03.785Z,5.62
2023-01-07T06:49:03.780Z,5.66
2023-01-07T06:50:03.742Z,5.82
2023-01-07T06:51:03.744Z,5.84
2023-01-07T06:52:03.774Z,5.93
2023-01-07T06:53:03.729Z,5.97
2023-01-07T06:54:03.714Z,5.97
2023-01-07T06:55:03.704Z,5.93
2023-01-07T06:56:03.687Z,6.01
2023-01-07T06:57:03.720Z,5.99
2023-01-07T06:58:03.668Z,6.01
2023-01-07T06:59:03.665Z,5.99
2023-01-07T07:00:03.640Z,6.02
2023-01-07T07:01:03.720Z,6.04
2023-01-07T07:02:03.752Z,6.07
2023-01-07T07:03:03.676Z,6.16
2023-01-07T07:04:03.594Z,6.28
2023-01-07T07:05:03.583Z,6.59
2023-01-07T07:06:03.572Z,6.69
2023-01-07T07:07:03.592Z,6.66
2023-01-07T07:08:03.575Z,6.69
2023-01-07T07:09:03.547Z,6.69
2023-01-07T07:10:03.536Z,6.69
2023-01-07T07:11:03.526Z,6.64
2023-01-07T07:12:03.542Z,6.60
2023-01-07T07:13:03.479Z,6.56
2023-01-07T07:14:03.478Z,6.56
2023-01-07T07:15:03.481Z,6.52
2023-01-07T07:16:03.520Z,6.57
2023-01-07T07:17:03.502Z,6.62
2023-01-07T07:18:03.453Z,6.63
2023-01-07T07:19:03.443Z,6.64
2023-01-07T07:20:03.416Z,6.81
2023-01-07T07:21:03.399Z,6.88
2023-01-07T07:22:04.748Z,6.99
2023-01-07T07:23:03.403Z,7.06
2023-01-07T07:24:03.392Z,7.07
2023-01-07T07:25:03.376Z,7.10
2023-01-07T07:26:03.333Z,7.15
2023-01-07T07:27:03.394Z,7.17
2023-01-07T07:28:03.320Z,7.15
2023-01-07T07:29:03.327Z,7.21
2023-01-07T07:30:03.305Z,7.23
2023-01-07T07:31:03.316Z,7.29
2023-01-07T07:32:03.336Z,7.28
2023-01-07T07:33:03.278Z,7.25
2023-01-07T07:34:03.252Z,7.31
2023-01-07T07:35:03.261Z,7.31
2023-01-07T07:36:03.241Z,7.35
2023-01-07T07:37:03.263Z,7.35
2023-01-07T07:38:03.220Z,7.36
2023-01-07T07:39:03.208Z,7.38
2023-01-07T07:40:03.201Z,7.43
2023-01-07T07:41:03.171Z,7.48
2023-01-07T07:42:03.206Z,7.51
2023-01-07T07:43:11.715Z,7.48
2023-01-07T07:44:04.147Z,7.50
2023-01-07T07:45:03.176Z,7.53
2023-01-07T07:46:03.113Z,7.58
2023-01-07T07:47:03.157Z,7.50
2023-01-07T07:48:03.089Z,7.57
2023-01-07T07:49:03.097Z,7.56
2023-01-07T07:50:03.088Z,7.57
2023-01-07T07:51:03.072Z,7.60
2023-01-07T07:52:03.075Z,7.57
2023-01-07T07:53:03.036Z,7.58
2023-01-07T07:54:03.024Z,7.67
2023-01-07T07:55:20.436Z,7.69
2023-01-07T07:56:03.991Z,7.67
2023-01-07T07:57:03.021Z,7.69
2023-01-07T07:58:02.980Z,7.76
2023-01-07T07:59:02.979Z,7.72
2023-01-07T08:00:02.965Z,7.76
2023-01-07T08:01:03.020Z,7.88
2023-01-07T08:02:03.063Z,7.90
2023-01-07T08:03:02.985Z,7.76
2023-01-07T08:04:02.934Z,7.79
2023-01-07T08:05:02.893Z,7.79
2023-01-07T08:06:02.882Z,7.87
2023-01-07T08:07:02.881Z,7.90
2023-01-07T08:08:02.927Z,7.97
2023-01-07T08:09:02.852Z,7.88
2023-01-07T08:10:02.876Z,7.90
2023-01-07T08:11:02.848Z,7.97
2023-01-07T08:12:02.850Z,7.98
2023-01-07T08:13:02.872Z,7.95
2023-01-07T08:14:02.843Z,8.01
2023-01-07T08:15:02.810Z,8.05
2023-01-07T08:16:02.817Z,8.16
2023-01-07T08:17:02.800Z,8.16
2023-01-07T08:18:02.815Z,8.20
2023-01-07T08:19:02.756Z,8.24
2023-01-07T08:20:02.745Z,8.28
2023-01-07T08:21:02.758Z,8.36
2023-01-07T08:22:02.723Z,8.38
2023-01-07T08:23:02.747Z,8.44
2023-01-07T08:24:02.715Z,8.51
2023-01-07T08:25:02.681Z,8.55
2023-01-07T08:26:02.709Z,8.61
2023-01-07T08:27:02.660Z,8.64
2023-01-07T08:28:02.699Z,8.66
2023-01-07T08:29:02.643Z,8.73
2023-01-07T08:30:02.624Z,8.74
2023-01-07T08:31:02.679Z,8.81
2023-01-07T08:32:02.608Z,8.87
2023-01-07T08:33:02.609Z,8.99
2023-01-07T08:34:02.589Z,9.14
2023-01-07T08:35:02.583Z,9.28
2023-01-07T08:36:06.949Z,9.46
2023-01-07T08:37:02.540Z,9.66
2023-01-07T08:38:02.582Z,9.76
2023-01-07T08:39:02.532Z,9.82
2023-01-07T08:40:04.663Z,9.79
2023-01-07T08:41:02.500Z,9.66
2023-01-07T08:42:02.513Z,9.89
2023-01-07T08:43:02.532Z,10.05
2023-01-07T08:44:02.474Z,10.17
2023-01-07T08:45:02.460Z,10.25
2023-01-07T08:46:02.442Z,10.25
2023-01-07T08:47:02.472Z,10.10
2023-01-07T08:48:02.468Z,9.83
2023-01-07T08:49:02.420Z,9.74
2023-01-07T08:50:02.400Z,9.68
2023-01-07T08:51:02.384Z,9.65
2023-01-07T08:52:02.378Z,9.62
2023-01-07T08:53:02.416Z,9.62
2023-01-07T08:54:02.343Z,9.62
2023-01-07T08:55:02.363Z,9.56
2023-01-07T08:56:02.359Z,9.55
2023-01-07T08:57:02.348Z,9.56
2023-01-07T08:58:02.341Z,9.59
2023-01-07T08:59:02.275Z,9.66
2023-01-07T09:00:02.308Z,9.64
2023-01-07T09:01:02.390Z,9.72
2023-01-07T09:02:02.337Z,9.84
2023-01-07T09:03:02.297Z,10.15
2023-01-07T09:04:02.241Z,10.61
2023-01-07T09:05:02.237Z,10.94
2023-01-07T09:06:02.222Z,11.15
2023-01-07T09:07:02.196Z,11.47
2023-01-07T09:08:02.238Z,11.86
2023-01-07T09:09:02.179Z,11.59
2023-01-07T09:10:02.196Z,11.60
2023-01-07T09:11:02.176Z,11.51
2023-01-07T09:12:02.176Z,10.90
2023-01-07T09:13:02.179Z,10.54
2023-01-07T09:14:02.131Z,10.59
2023-01-07T09:15:02.102Z,10.40
2023-01-07T09:16:02.129Z,10.30
2023-01-07T09:17:02.085Z,10.33
2023-01-07T09:18:02.131Z,10.30
2023-01-07T09:19:02.082Z,10.28
2023-01-07T09:20:02.083Z,10.25
2023-01-07T09:21:02.064Z,10.23
2023-01-07T09:22:02.064Z,10.16
2023-01-07T09:23:02.085Z,10.17
2023-01-07T09:24:02.046Z,10.15
2023-01-07T09:25:01.994Z,10.19
2023-01-07T09:26:02.016Z,10.26
2023-01-07T09:27:02.002Z,10.22
2023-01-07T09:28:01.992Z,10.26
2023-01-07T09:29:02.009Z,10.26
2023-01-07T09:30:01.967Z,10.17
2023-01-07T09:31:01.949Z,10.12
2023-01-07T09:32:01.916Z,10.07
2023-01-07T09:33:01.941Z,10.05
2023-01-07T09:34:01.951Z,10.09
2023-01-07T09:35:01.892Z,10.13
2023-01-07T09:36:01.905Z,10.15
2023-01-07T09:37:01.867Z,10.16
2023-01-07T09:38:01.862Z,10.10
2023-01-07T09:39:01.874Z,10.07
2023-01-07T09:40:01.845Z,10.07
2023-01-07T09:41:01.833Z,10.01
2023-01-07T09:42:01.813Z,9.99
2023-01-07T09:43:01.840Z,9.97
2023-01-07T09:44:02.107Z,9.97
2023-01-07T09:45:01.778Z,9.94
2023-01-07T09:46:01.835Z,9.89
2023-01-07T09:47:01.743Z,9.91
2023-01-07T09:48:01.740Z,9.97
2023-01-07T09:49:01.773Z,9.95
2023-01-07T09:50:01.718Z,9.99
2023-01-07T09:51:01.732Z,10.05
2023-01-07T09:52:01.714Z,10.13
2023-01-07T09:53:01.680Z,10.10
2023-01-07T09:54:01.719Z,10.16
2023-01-07T09:55:01.675Z,10.15
2023-01-07T09:56:10.687Z,10.16
2023-01-07T09:57:02.648Z,10.19
2023-01-07T09:58:01.652Z,10.22
2023-01-07T09:59:01.675Z,10.22
2023-01-07T10:00:01.622Z,10.22
2023-01-07T10:01:01.668Z,10.23
2023-01-07T10:02:01.607Z,10.26
2023-01-07T10:03:01.573Z,10.20
2023-01-07T10:04:01.647Z,10.26
2023-01-07T10:05:01.556Z,10.30
2023-01-07T10:06:01.555Z,10.30
2023-01-07T10:07:01.535Z,10.35
2023-01-07T10:08:30.084Z,10.46
2023-01-07T10:09:02.539Z,10.48
2023-01-07T10:10:01.508Z,10.51
2023-01-07T10:11:01.512Z,10.42
2023-01-07T10:12:01.476Z,10.51
2023-01-07T10:13:01.456Z,10.67
2023-01-07T10:14:01.475Z,10.75
2023-01-07T10:15:01.481Z,10.86
2023-01-07T10:16:01.474Z,10.89
2023-01-07T10:17:01.402Z,10.89
2023-01-07T10:18:01.396Z,10.79
2023-01-07T10:19:01.397Z,10.74
2023-01-07T10:20:01.449Z,10.69
2023-01-07T10:21:01.370Z,10.51
2023-01-07T10:22:01.366Z,10.53
2023-01-07T10:23:01.350Z,10.51
2023-01-07T10:24:01.334Z,10.59
2023-01-07T10:25:01.361Z,10.69
2023-01-07T10:26:01.342Z,10.78
2023-01-07T10:27:01.291Z,10.97
2023-01-07T10:28:01.293Z,11.12
2023-01-07T10:29:01.276Z,11.26
2023-01-07T10:30:01.328Z,11.18
2023-01-07T10:31:01.257Z,11.29
2023-01-07T10:32:01.317Z,11.50
2023-01-07T10:33:01.252Z,11.44
2023-01-07T10:34:01.232Z,11.44
2023-01-07T10:35:01.288Z,11.50
2023-01-07T10:36:01.216Z,11.75
2023-01-07T10:37:01.207Z,11.86
2023-01-07T10:38:01.195Z,11.97
2023-01-07T10:39:01.185Z,11.91
2023-01-07T10:40:01.192Z,11.86
2023-01-07T10:41:01.148Z,11.75
2023-01-07T10:42:01.141Z,11.65
2023-01-07T10:43:01.116Z,11.84
2023-01-07T10:44:01.126Z,12.13
2023-01-07T10:45:01.163Z,12.12
2023-01-07T10:46:01.180Z,12.36
2023-01-07T10:47:01.076Z,12.43
2023-01-07T10:48:01.057Z,12.57
2023-01-07T10:49:01.068Z,12.62
2023-01-07T10:50:01.105Z,12.82
2023-01-07T10:51:01.081Z,12.83
2023-01-07T10:52:01.022Z,12.91
2023-01-07T10:53:01.023Z,13.03
2023-01-07T10:54:00.997Z,13.15
2023-01-07T10:55:00.997Z,13.23
2023-01-07T10:56:01.021Z,13.22
2023-01-07T10:57:00.953Z,13.37
2023-01-07T10:58:00.957Z,13.08
2023-01-07T10:59:00.925Z,12.73
2023-01-07T11:00:00.945Z,12.46
2023-01-07T11:01:01.117Z,12.15
2023-01-07T11:02:01.178Z,12.03
2023-01-07T11:03:01.008Z,12.17
2023-01-07T11:04:00.880Z,12.37
2023-01-07T11:05:00.880Z,12.80
2023-01-07T11:06:00.905Z,12.82
2023-01-07T11:07:00.857Z,13.15
2023-01-07T11:08:00.832Z,13.28
2023-01-07T11:09:00.837Z,13.46
2023-01-07T11:10:00.826Z,13.54
2023-01-07T11:11:00.840Z,13.49
2023-01-07T11:12:00.799Z,13.37
2023-01-07T11:13:00.770Z,13.13
2023-01-07T11:14:00.782Z,13.35
2023-01-07T11:15:00.809Z,13.72
2023-01-07T11:16:00.776Z,13.56
2023-01-07T11:17:00.735Z,13.27
2023-01-07T11:18:00.722Z,13.28
2023-01-07T11:19:00.715Z,13.46
2023-01-07T11:20:00.721Z,13.23
2023-01-07T11:21:00.731Z,13.27
2023-01-07T11:22:00.667Z,12.79
2023-01-07T11:23:00.688Z,12.76
2023-01-07T11:24:00.674Z,13.09
2023-01-07T11:25:00.660Z,13.37
2023-01-07T11:26:00.646Z,13.37
2023-01-07T11:27:00.610Z,13.16
2023-01-07T11:28:00.614Z,13.13
2023-01-07T11:29:00.585Z,13.16
2023-01-07T11:30:00.613Z,13.16
2023-01-07T11:31:00.633Z,12.91
2023-01-07T11:32:00.683Z,12.90
2023-01-07T11:33:00.559Z,12.85
2023-01-07T11:34:02.157Z,12.78
2023-01-07T11:35:00.527Z,12.75
2023-01-07T11:36:00.572Z,12.80
2023-01-07T11:37:00.493Z,12.82
2023-01-07T11:38:00.513Z,12.73
2023-01-07T11:39:00.474Z,12.47
2023-01-07T11:40:00.492Z,12.46
2023-01-07T11:41:00.822Z,12.43
2023-01-07T11:42:00.452Z,12.54
2023-01-07T11:43:00.428Z,12.57
2023-01-07T11:44:00.423Z,12.45
2023-01-07T11:45:00.444Z,12.29
2023-01-07T11:46:19.086Z,12.36
2023-01-07T11:47:01.414Z,12.32
2023-01-07T11:48:00.376Z,12.61
2023-01-07T11:49:00.383Z,12.53
2023-01-07T11:50:00.359Z,12.22
2023-01-07T11:51:00.393Z,12.12
2023-01-07T11:52:00.339Z,12.22
2023-01-07T11:53:00.336Z,12.65
2023-01-07T11:54:00.328Z,12.80
2023-01-07T11:55:00.285Z,12.73
2023-01-07T11:56:00.326Z,12.79
2023-01-07T11:57:00.278Z,12.79
2023-01-07T11:58:28.809Z,13.30
2023-01-07T11:59:01.270Z,13.65
2023-01-07T12:00:00.253Z,13.87
2023-01-07T12:01:00.313Z,13.96
2023-01-07T12:02:00.291Z,14.05
2023-01-07T12:03:00.221Z,13.72
2023-01-07T12:04:00.195Z,14.04
2023-01-07T12:05:00.199Z,14.08
2023-01-07T12:06:00.372Z,14.15
2023-01-07T12:07:00.174Z,13.92
2023-01-07T12:08:00.162Z,13.89
2023-01-07T12:09:00.132Z,13.47
2023-01-07T12:10:00.141Z,13.70
2023-01-07T12:11:00.152Z,13.39
2023-01-07T12:12:00.104Z,13.12
2023-01-07T12:13:00.113Z,12.70
2023-01-07T12:14:00.119Z,12.32
2023-01-07T12:15:00.087Z,12.04
2023-01-07T12:16:00.164Z,11.83
2023-01-07T12:17:00.046Z,11.72
2023-01-07T12:18:00.047Z,11.69
2023-01-07T12:19:00.049Z,11.75
2023-01-07T12:20:00.033Z,11.73
2023-01-07T12:21:00.080Z,11.77
2023-01-07T12:22:00.031Z,11.97
2023-01-07T12:22:59.991Z,11.83
2023-01-07T12:23:59.998Z,11.99
2023-01-07T12:24:59.959Z,12.27
2023-01-07T12:26:00.032Z,12.17
2023-01-07T12:26:59.964Z,12.00
2023-01-07T12:27:59.928Z,11.97
2023-01-07T12:28:59.924Z,11.99
2023-01-07T12:29:59.887Z,12.02
2023-01-07T12:30:59.935Z,12.07
2023-01-07T12:31:59.885Z,12.13
2023-01-07T12:32:59.885Z,12.25
2023-01-07T12:33:59.872Z,12.35
2023-01-07T12:35:14.207Z,12.47
2023-01-07T12:36:00.876Z,12.37
2023-01-07T12:36:59.809Z,12.24
2023-01-07T12:37:59.810Z,12.43
2023-01-07T12:38:59.789Z,12.73
2023-01-07T12:39:59.817Z,13.35
2023-01-07T12:40:59.765Z,14.03
2023-01-07T12:41:59.810Z,14.17
2023-01-07T12:42:59.770Z,14.12
2023-01-07T12:43:59.765Z,14.32
2023-01-07T12:44:59.761Z,14.26
2023-01-07T12:45:59.859Z,14.47
2023-01-07T12:47:29.907Z,14.54
2023-01-07T12:48:00.678Z,14.28
2023-01-07T12:48:59.697Z,14.35
2023-01-07T12:49:59.709Z,14.15
2023-01-07T12:50:59.686Z,13.63
2023-01-07T12:51:59.702Z,13.37
2023-01-07T12:52:59.653Z,13.04
2023-01-07T12:53:59.632Z,12.86
2023-01-07T12:54:59.638Z,12.70
2023-01-07T12:55:59.638Z,12.67
2023-01-07T12:56:59.632Z,12.68
2023-01-07T12:57:59.604Z,12.60
2023-01-07T12:58:59.590Z,12.46
2023-01-07T12:59:59.558Z,12.53
2023-01-07T13:00:59.653Z,12.43
2023-01-07T13:01:59.696Z,12.36
2023-01-07T13:02:59.535Z,12.21
2023-01-07T13:03:59.514Z,12.18
2023-01-07T13:04:59.593Z,12.15
2023-01-07T13:05:59.646Z,12.10
2023-01-07T13:06:59.516Z,12.04
2023-01-07T13:07:59.481Z,12.00
2023-01-07T13:08:59.462Z,11.95
2023-01-07T13:09:59.452Z,11.91